sensor_id;sensor_type;location;lat;lon;timestamp;temperature;humidity
68485;DHT22;55472;50.060;21.960;2022-10-16T00:01:27;12.00;83.80
68485;DHT22;55472;50.060;21.960;2022-10-16T00:03:55;12.00;83.90
68485;DHT22;55472;50.060;21.960;2022-10-16T00:06:23;12.00;84.00
68485;DHT22;55472;50.060;21.960;2022-10-16T00:08:50;12.00;84.10
68485;DHT22;55472;50.060;21.960;2022-10-16T00:11:27;12.00;84.00
68485;DHT22;55472;50.060;21.960;2022-10-16T00:14:00;12.00;84.00
68485;DHT22;55472;50.060;21.960;2022-10-16T00:16:28;12.00;84.00
68485;DHT22;55472;50.060;21.960;2022-10-16T00:18:54;12.00;84.10
68485;DHT22;55472;50.060;21.960;2022-10-16T00:21:24;12.00;84.10
68485;DHT22;55472;50.060;21.960;2022-10-16T00:23:52;12.00;84.10
68485;DHT22;55472;50.060;21.960;2022-10-16T00:26:20;12.00;84.10
68485;DHT22;55472;50.060;21.960;2022-10-16T00:28:48;12.00;84.00
68485;DHT22;55472;50.060;21.960;2022-10-16T00:31:17;12.00;84.20
68485;DHT22;55472;50.060;21.960;2022-10-16T00:33:44;12.00;84.20
68485;DHT22;55472;50.060;21.960;2022-10-16T00:36:13;12.00;84.00
68485;DHT22;55472;50.060;21.960;2022-10-16T00:38:40;12.00;84.00
68485;DHT22;55472;50.060;21.960;2022-10-16T00:41:11;12.00;84.10
68485;DHT22;55472;50.060;21.960;2022-10-16T00:43:51;12.00;84.20
68485;DHT22;55472;50.060;21.960;2022-10-16T00:46:29;12.00;84.00
68485;DHT22;55472;50.060;21.960;2022-10-16T00:49:10;12.00;83.90
68485;DHT22;55472;50.060;21.960;2022-10-16T00:51:42;12.10;83.80
68485;DHT22;55472;50.060;21.960;2022-10-16T00:54:36;12.10;83.90
68485;DHT22;55472;50.060;21.960;2022-10-16T00:57:04;12.10;83.80
68485;DHT22;55472;50.060;21.960;2022-10-16T00:59:40;12.10;83.90
68485;DHT22;55472;50.060;21.960;2022-10-16T01:02:09;12.10;83.80
68485;DHT22;55472;50.060;21.960;2022-10-16T01:04:42;12.10;83.80
68485;DHT22;55472;50.060;21.960;2022-10-16T01:07:36;12.10;83.90
68485;DHT22;55472;50.060;21.960;2022-10-16T01:10:38;12.00;83.80
68485;DHT22;55472;50.060;21.960;2022-10-16T01:15:47;12.00;83.70
68485;DHT22;55472;50.060;21.960;2022-10-16T01:21:32;12.00;83.80
68485;DHT22;55472;50.060;21.960;2022-10-16T01:27:13;11.90;84.10
68485;DHT22;55472;50.060;21.960;2022-10-16T01:30:07;11.90;84.10
68485;DHT22;55472;50.060;21.960;2022-10-16T01:32:40;11.80;84.00
68485;DHT22;55472;50.060;21.960;2022-10-16T01:35:32;11.80;84.00
68485;DHT22;55472;50.060;21.960;2022-10-16T01:38:34;11.80;84.00
68485;DHT22;55472;50.060;21.960;2022-10-16T01:41:08;11.70;84.30
68485;DHT22;55472;50.060;21.960;2022-10-16T01:43:49;11.70;84.30
68485;DHT22;55472;50.060;21.960;2022-10-16T01:46:20;11.70;84.30
68485;DHT22;55472;50.060;21.960;2022-10-16T01:48:48;11.70;84.30
68485;DHT22;55472;50.060;21.960;2022-10-16T01:51:16;11.70;84.40
68485;DHT22;55472;50.060;21.960;2022-10-16T01:53:48;11.60;84.50
68485;DHT22;55472;50.060;21.960;2022-10-16T01:56:18;11.60;84.50
68485;DHT22;55472;50.060;21.960;2022-10-16T01:58:51;11.60;84.60
68485;DHT22;55472;50.060;21.960;2022-10-16T02:01:23;11.60;84.70
68485;DHT22;55472;50.060;21.960;2022-10-16T02:03:53;11.60;84.80
68485;DHT22;55472;50.060;21.960;2022-10-16T02:06:20;11.60;84.70
68485;DHT22;55472;50.060;21.960;2022-10-16T02:08:46;11.60;84.70
68485;DHT22;55472;50.060;21.960;2022-10-16T02:11:12;11.60;84.40
68485;DHT22;55472;50.060;21.960;2022-10-16T02:13:45;11.60;84.70
68485;DHT22;55472;50.060;21.960;2022-10-16T02:16:13;11.60;84.80
68485;DHT22;55472;50.060;21.960;2022-10-16T02:18:41;11.60;84.70
68485;DHT22;55472;50.060;21.960;2022-10-16T02:21:26;11.60;84.60
68485;DHT22;55472;50.060;21.960;2022-10-16T02:26:46;11.70;84.40
68485;DHT22;55472;50.060;21.960;2022-10-16T02:29:23;11.60;84.40
68485;DHT22;55472;50.060;21.960;2022-10-16T02:31:55;11.70;84.30
68485;DHT22;55472;50.060;21.960;2022-10-16T02:34:27;11.70;84.20
68485;DHT22;55472;50.060;21.960;2022-10-16T02:36:55;11.70;84.20
68485;DHT22;55472;50.060;21.960;2022-10-16T02:39:22;11.70;84.10
68485;DHT22;55472;50.060;21.960;2022-10-16T02:41:48;11.70;84.20
68485;DHT22;55472;50.060;21.960;2022-10-16T02:44:14;11.60;84.20
68485;DHT22;55472;50.060;21.960;2022-10-16T02:46:40;11.70;84.10
68485;DHT22;55472;50.060;21.960;2022-10-16T02:49:06;11.70;84.00
68485;DHT22;55472;50.060;21.960;2022-10-16T02:51:32;11.70;83.80
68485;DHT22;55472;50.060;21.960;2022-10-16T02:53:58;11.70;83.80
68485;DHT22;55472;50.060;21.960;2022-10-16T02:56:24;11.70;83.70
68485;DHT22;55472;50.060;21.960;2022-10-16T02:58:49;11.80;83.50
68485;DHT22;55472;50.060;21.960;2022-10-16T03:01:15;11.90;83.20
68485;DHT22;55472;50.060;21.960;2022-10-16T03:03:42;11.90;83.20
68485;DHT22;55472;50.060;21.960;2022-10-16T03:06:08;11.90;83.00
68485;DHT22;55472;50.060;21.960;2022-10-16T03:08:34;11.90;82.90
68485;DHT22;55472;50.060;21.960;2022-10-16T03:11:00;11.90;83.00
68485;DHT22;55472;50.060;21.960;2022-10-16T03:13:26;11.90;83.10
68485;DHT22;55472;50.060;21.960;2022-10-16T03:15:52;11.90;83.10
68485;DHT22;55472;50.060;21.960;2022-10-16T03:18:18;12.00;83.10
68485;DHT22;55472;50.060;21.960;2022-10-16T03:20:44;12.00;83.00
68485;DHT22;55472;50.060;21.960;2022-10-16T03:23:10;11.90;83.10
68485;DHT22;55472;50.060;21.960;2022-10-16T03:25:37;11.90;83.20
68485;DHT22;55472;50.060;21.960;2022-10-16T03:28:03;12.00;83.20
68485;DHT22;55472;50.060;21.960;2022-10-16T03:30:29;12.00;83.10
68485;DHT22;55472;50.060;21.960;2022-10-16T03:32:55;12.00;82.70
68485;DHT22;55472;50.060;21.960;2022-10-16T03:35:22;12.00;82.80
68485;DHT22;55472;50.060;21.960;2022-10-16T03:37:49;12.10;82.80
68485;DHT22;55472;50.060;21.960;2022-10-16T03:40:15;12.10;83.00
68485;DHT22;55472;50.060;21.960;2022-10-16T03:42:43;12.10;82.80
68485;DHT22;55472;50.060;21.960;2022-10-16T03:45:10;12.10;82.50
68485;DHT22;55472;50.060;21.960;2022-10-16T03:47:36;12.10;82.50
68485;DHT22;55472;50.060;21.960;2022-10-16T03:50:03;12.10;82.40
68485;DHT22;55472;50.060;21.960;2022-10-16T03:52:30;12.20;82.20
68485;DHT22;55472;50.060;21.960;2022-10-16T03:54:56;12.20;82.20
68485;DHT22;55472;50.060;21.960;2022-10-16T03:57:21;12.20;82.00
68485;DHT22;55472;50.060;21.960;2022-10-16T03:59:48;12.20;82.20
68485;DHT22;55472;50.060;21.960;2022-10-16T04:02:13;12.20;81.90
68485;DHT22;55472;50.060;21.960;2022-10-16T04:04:40;12.20;82.00
68485;DHT22;55472;50.060;21.960;2022-10-16T04:07:05;12.20;82.00
68485;DHT22;55472;50.060;21.960;2022-10-16T04:09:31;12.20;82.00
68485;DHT22;55472;50.060;21.960;2022-10-16T04:11:57;12.30;81.60
68485;DHT22;55472;50.060;21.960;2022-10-16T04:14:23;12.30;81.50
68485;DHT22;55472;50.060;21.960;2022-10-16T04:16:49;12.30;81.50
68485;DHT22;55472;50.060;21.960;2022-10-16T04:19:15;12.30;81.50
68485;DHT22;55472;50.060;21.960;2022-10-16T04:21:41;12.30;81.30
68485;DHT22;55472;50.060;21.960;2022-10-16T04:24:07;12.30;81.20
68485;DHT22;55472;50.060;21.960;2022-10-16T04:26:33;12.30;81.00
68485;DHT22;55472;50.060;21.960;2022-10-16T04:28:59;12.40;81.00
68485;DHT22;55472;50.060;21.960;2022-10-16T04:31:25;12.30;81.10
68485;DHT22;55472;50.060;21.960;2022-10-16T04:33:51;12.30;81.20
68485;DHT22;55472;50.060;21.960;2022-10-16T04:36:17;12.30;81.40
68485;DHT22;55472;50.060;21.960;2022-10-16T04:38:43;12.30;81.20
68485;DHT22;55472;50.060;21.960;2022-10-16T04:41:09;12.30;81.20
68485;DHT22;55472;50.060;21.960;2022-10-16T04:43:35;12.30;81.20
68485;DHT22;55472;50.060;21.960;2022-10-16T04:46:01;12.30;81.30
68485;DHT22;55472;50.060;21.960;2022-10-16T04:48:27;12.30;81.10
68485;DHT22;55472;50.060;21.960;2022-10-16T04:50:53;12.40;81.10
68485;DHT22;55472;50.060;21.960;2022-10-16T04:53:19;12.40;81.10
68485;DHT22;55472;50.060;21.960;2022-10-16T04:55:45;12.40;81.20
68485;DHT22;55472;50.060;21.960;2022-10-16T04:58:11;12.40;81.20
68485;DHT22;55472;50.060;21.960;2022-10-16T05:00:37;12.40;81.30
68485;DHT22;55472;50.060;21.960;2022-10-16T05:03:04;12.40;81.00
68485;DHT22;55472;50.060;21.960;2022-10-16T05:05:33;12.40;81.10
68485;DHT22;55472;50.060;21.960;2022-10-16T05:07:59;12.40;81.10
68485;DHT22;55472;50.060;21.960;2022-10-16T05:10:25;12.40;81.00
68485;DHT22;55472;50.060;21.960;2022-10-16T05:12:51;12.40;80.70
68485;DHT22;55472;50.060;21.960;2022-10-16T05:15:17;12.50;80.70
68485;DHT22;55472;50.060;21.960;2022-10-16T05:17:44;12.50;80.60
68485;DHT22;55472;50.060;21.960;2022-10-16T05:20:10;12.50;80.40
68485;DHT22;55472;50.060;21.960;2022-10-16T05:22:37;12.50;80.60
68485;DHT22;55472;50.060;21.960;2022-10-16T05:25:03;12.50;80.50
68485;DHT22;55472;50.060;21.960;2022-10-16T05:27:29;12.60;80.40
68485;DHT22;55472;50.060;21.960;2022-10-16T05:29:55;12.60;80.40
68485;DHT22;55472;50.060;21.960;2022-10-16T05:32:21;12.60;80.10
68485;DHT22;55472;50.060;21.960;2022-10-16T05:34:47;12.60;80.30
68485;DHT22;55472;50.060;21.960;2022-10-16T05:37:13;12.60;80.30
68485;DHT22;55472;50.060;21.960;2022-10-16T05:39:39;12.60;80.30
68485;DHT22;55472;50.060;21.960;2022-10-16T05:42:05;12.60;80.20
68485;DHT22;55472;50.060;21.960;2022-10-16T05:44:32;12.70;79.90
68485;DHT22;55472;50.060;21.960;2022-10-16T05:46:58;12.70;80.00
68485;DHT22;55472;50.060;21.960;2022-10-16T05:49:24;12.70;80.00
68485;DHT22;55472;50.060;21.960;2022-10-16T05:51:50;12.80;80.00
68485;DHT22;55472;50.060;21.960;2022-10-16T05:54:16;12.80;79.50
68485;DHT22;55472;50.060;21.960;2022-10-16T05:56:42;12.90;79.50
68485;DHT22;55472;50.060;21.960;2022-10-16T05:59:08;12.90;79.40
68485;DHT22;55472;50.060;21.960;2022-10-16T06:01:34;13.00;79.50
68485;DHT22;55472;50.060;21.960;2022-10-16T06:04:01;13.00;79.30
68485;DHT22;55472;50.060;21.960;2022-10-16T06:06:28;13.00;79.00
68485;DHT22;55472;50.060;21.960;2022-10-16T06:08:56;13.10;78.60
68485;DHT22;55472;50.060;21.960;2022-10-16T06:11:25;13.10;78.50
68485;DHT22;55472;50.060;21.960;2022-10-16T06:13:55;13.10;78.40
68485;DHT22;55472;50.060;21.960;2022-10-16T06:16:25;13.20;78.00
68485;DHT22;55472;50.060;21.960;2022-10-16T06:18:52;13.20;77.70
68485;DHT22;55472;50.060;21.960;2022-10-16T06:21:22;13.20;77.60
68485;DHT22;55472;50.060;21.960;2022-10-16T06:23:52;13.30;77.60
68485;DHT22;55472;50.060;21.960;2022-10-16T06:26:20;13.30;77.20
68485;DHT22;55472;50.060;21.960;2022-10-16T06:28:47;13.40;76.90
68485;DHT22;55472;50.060;21.960;2022-10-16T06:31:14;13.40;76.60
68485;DHT22;55472;50.060;21.960;2022-10-16T06:33:40;13.50;76.50
68485;DHT22;55472;50.060;21.960;2022-10-16T06:36:10;13.50;76.30
68485;DHT22;55472;50.060;21.960;2022-10-16T06:38:38;13.50;76.20
68485;DHT22;55472;50.060;21.960;2022-10-16T06:41:05;13.60;76.40
68485;DHT22;55472;50.060;21.960;2022-10-16T06:43:32;13.70;75.70
68485;DHT22;55472;50.060;21.960;2022-10-16T06:45:59;13.70;75.70
68485;DHT22;55472;50.060;21.960;2022-10-16T06:48:25;13.70;75.80
68485;DHT22;55472;50.060;21.960;2022-10-16T06:53:27;13.90;75.50
68485;DHT22;55472;50.060;21.960;2022-10-16T06:55:55;13.90;75.20
68485;DHT22;55472;50.060;21.960;2022-10-16T06:58:21;13.90;75.10
68485;DHT22;55472;50.060;21.960;2022-10-16T07:00:47;14.00;74.90
68485;DHT22;55472;50.060;21.960;2022-10-16T07:03:14;14.00;74.50
68485;DHT22;55472;50.060;21.960;2022-10-16T07:05:43;14.10;74.30
68485;DHT22;55472;50.060;21.960;2022-10-16T07:08:09;14.20;74.70
68485;DHT22;55472;50.060;21.960;2022-10-16T07:10:35;14.30;74.40
68485;DHT22;55472;50.060;21.960;2022-10-16T07:13:02;14.50;73.50
68485;DHT22;55472;50.060;21.960;2022-10-16T07:15:28;14.60;73.00
68485;DHT22;55472;50.060;21.960;2022-10-16T07:17:54;14.70;72.40
68485;DHT22;55472;50.060;21.960;2022-10-16T07:20:20;14.80;72.20
68485;DHT22;55472;50.060;21.960;2022-10-16T07:22:46;15.00;71.60
68485;DHT22;55472;50.060;21.960;2022-10-16T07:25:12;15.10;70.80
68485;DHT22;55472;50.060;21.960;2022-10-16T07:27:38;15.40;71.10
68485;DHT22;55472;50.060;21.960;2022-10-16T07:30:05;15.50;69.80
68485;DHT22;55472;50.060;21.960;2022-10-16T07:32:32;15.60;69.40
68485;DHT22;55472;50.060;21.960;2022-10-16T07:34:58;15.70;69.00
68485;DHT22;55472;50.060;21.960;2022-10-16T07:37:23;15.70;68.60
68485;DHT22;55472;50.060;21.960;2022-10-16T07:39:49;15.80;68.60
68485;DHT22;55472;50.060;21.960;2022-10-16T07:42:15;15.80;68.30
68485;DHT22;55472;50.060;21.960;2022-10-16T07:44:41;15.90;68.20
68485;DHT22;55472;50.060;21.960;2022-10-16T07:47:07;15.90;67.70
68485;DHT22;55472;50.060;21.960;2022-10-16T07:49:34;16.00;68.00
68485;DHT22;55472;50.060;21.960;2022-10-16T07:51:59;16.20;67.40
68485;DHT22;55472;50.060;21.960;2022-10-16T07:54:25;16.80;65.90
68485;DHT22;55472;50.060;21.960;2022-10-16T07:56:51;17.80;63.00
68485;DHT22;55472;50.060;21.960;2022-10-16T07:59:17;19.20;59.10
68485;DHT22;55472;50.060;21.960;2022-10-16T08:01:43;20.90;55.00
68485;DHT22;55472;50.060;21.960;2022-10-16T08:04:10;22.70;50.60
68485;DHT22;55472;50.060;21.960;2022-10-16T08:06:38;24.30;47.70
68485;DHT22;55472;50.060;21.960;2022-10-16T08:09:05;25.60;44.10
68485;DHT22;55472;50.060;21.960;2022-10-16T08:11:32;26.70;42.90
68485;DHT22;55472;50.060;21.960;2022-10-16T08:13:58;28.00;40.80
68485;DHT22;55472;50.060;21.960;2022-10-16T08:16:24;29.00;39.60
68485;DHT22;55472;50.060;21.960;2022-10-16T08:18:51;29.80;38.40
68485;DHT22;55472;50.060;21.960;2022-10-16T08:21:19;30.50;36.70
68485;DHT22;55472;50.060;21.960;2022-10-16T08:23:50;31.10;36.80
68485;DHT22;55472;50.060;21.960;2022-10-16T08:26:16;31.20;36.00
68485;DHT22;55472;50.060;21.960;2022-10-16T08:28:42;30.20;36.70
68485;DHT22;55472;50.060;21.960;2022-10-16T08:31:12;29.60;37.80
68485;DHT22;55472;50.060;21.960;2022-10-16T08:33:41;30.00;37.70
68485;DHT22;55472;50.060;21.960;2022-10-16T08:36:09;29.90;37.60
68485;DHT22;55472;50.060;21.960;2022-10-16T08:38:39;29.00;38.50
68485;DHT22;55472;50.060;21.960;2022-10-16T08:41:28;29.30;38.70
68485;DHT22;55472;50.060;21.960;2022-10-16T08:47:13;32.20;35.30
68485;DHT22;55472;50.060;21.960;2022-10-16T08:50:28;33.70;33.40
68485;DHT22;55472;50.060;21.960;2022-10-16T08:56:04;35.70;31.30
68485;DHT22;55472;50.060;21.960;2022-10-16T08:58:33;35.10;31.50
68485;DHT22;55472;50.060;21.960;2022-10-16T09:01:01;34.80;31.40
68485;DHT22;55472;50.060;21.960;2022-10-16T09:12:52;28.30;39.20
68485;DHT22;55472;50.060;21.960;2022-10-16T09:15:56;27.20;40.80
68485;DHT22;55472;50.060;21.960;2022-10-16T09:21:42;25.70;42.50
68485;DHT22;55472;50.060;21.960;2022-10-16T09:26:44;26.20;41.80
68485;DHT22;55472;50.060;21.960;2022-10-16T09:29:13;27.40;40.00
68485;DHT22;55472;50.060;21.960;2022-10-16T09:31:39;28.40;39.00
68485;DHT22;55472;50.060;21.960;2022-10-16T09:34:08;28.90;37.80
68485;DHT22;55472;50.060;21.960;2022-10-16T09:36:42;28.70;38.00
68485;DHT22;55472;50.060;21.960;2022-10-16T09:39:10;27.80;39.40
68485;DHT22;55472;50.060;21.960;2022-10-16T09:44:19;27.10;40.60
68485;DHT22;55472;50.060;21.960;2022-10-16T09:46:49;25.60;42.40
68485;DHT22;55472;50.060;21.960;2022-10-16T09:49:24;24.80;44.20
68485;DHT22;55472;50.060;21.960;2022-10-16T09:52:02;24.30;45.10
68485;DHT22;55472;50.060;21.960;2022-10-16T09:54:50;23.80;45.90
68485;DHT22;55472;50.060;21.960;2022-10-16T09:57:17;23.40;47.10
68485;DHT22;55472;50.060;21.960;2022-10-16T09:59:51;23.10;47.50
68485;DHT22;55472;50.060;21.960;2022-10-16T10:02:21;22.90;47.70
68485;DHT22;55472;50.060;21.960;2022-10-16T10:04:55;22.50;48.30
68485;DHT22;55472;50.060;21.960;2022-10-16T10:07:28;22.20;49.20
68485;DHT22;55472;50.060;21.960;2022-10-16T10:10:00;22.20;49.60
68485;DHT22;55472;50.060;21.960;2022-10-16T10:12:30;22.40;49.70
68485;DHT22;55472;50.060;21.960;2022-10-16T10:15:13;22.20;49.50
68485;DHT22;55472;50.060;21.960;2022-10-16T10:17:54;21.90;50.30
68485;DHT22;55472;50.060;21.960;2022-10-16T10:22:50;22.00;50.70
68485;DHT22;55472;50.060;21.960;2022-10-16T10:25:26;22.20;50.70
68485;DHT22;55472;50.060;21.960;2022-10-16T10:28:08;22.50;49.20
68485;DHT22;55472;50.060;21.960;2022-10-16T10:31:11;23.00;48.50
68485;DHT22;55472;50.060;21.960;2022-10-16T10:34:32;23.20;47.40
68485;DHT22;55472;50.060;21.960;2022-10-16T10:40:00;23.60;47.10
68485;DHT22;55472;50.060;21.960;2022-10-16T10:42:46;23.60;46.90
68485;DHT22;55472;50.060;21.960;2022-10-16T10:45:27;23.70;46.80
68485;DHT22;55472;50.060;21.960;2022-10-16T10:50:48;23.80;45.80
68485;DHT22;55472;50.060;21.960;2022-10-16T11:02:43;24.50;45.00
68485;DHT22;55472;50.060;21.960;2022-10-16T11:05:16;24.70;44.30
68485;DHT22;55472;50.060;21.960;2022-10-16T11:08:15;24.70;45.20
68485;DHT22;55472;50.060;21.960;2022-10-16T11:10:58;24.80;44.60
68485;DHT22;55472;50.060;21.960;2022-10-16T11:14:03;24.80;44.40
68485;DHT22;55472;50.060;21.960;2022-10-16T11:16:45;24.80;44.50
68485;DHT22;55472;50.060;21.960;2022-10-16T11:22:36;24.60;45.20
68485;DHT22;55472;50.060;21.960;2022-10-16T11:25:13;24.60;44.80
68485;DHT22;55472;50.060;21.960;2022-10-16T11:28:19;24.60;45.40
68485;DHT22;55472;50.060;21.960;2022-10-16T11:33:23;24.30;44.90
68485;DHT22;55472;50.060;21.960;2022-10-16T11:36:19;24.10;44.80
68485;DHT22;55472;50.060;21.960;2022-10-16T11:38:59;24.00;45.10
68485;DHT22;55472;50.060;21.960;2022-10-16T11:41:51;23.70;45.70
68485;DHT22;55472;50.060;21.960;2022-10-16T11:50:31;23.60;46.10
68485;DHT22;55472;50.060;21.960;2022-10-16T11:56:20;23.50;46.70
68485;DHT22;55472;50.060;21.960;2022-10-16T11:59:00;23.40;46.40
68485;DHT22;55472;50.060;21.960;2022-10-16T12:01:37;23.40;46.90
68485;DHT22;55472;50.060;21.960;2022-10-16T12:04:12;23.50;46.90
68485;DHT22;55472;50.060;21.960;2022-10-16T12:06:48;23.50;47.30
68485;DHT22;55472;50.060;21.960;2022-10-16T12:09:26;23.40;47.20
68485;DHT22;55472;50.060;21.960;2022-10-16T12:11:53;23.30;46.90
68485;DHT22;55472;50.060;21.960;2022-10-16T12:14:32;23.20;47.30
68485;DHT22;55472;50.060;21.960;2022-10-16T12:20:00;23.10;47.50
68485;DHT22;55472;50.060;21.960;2022-10-16T12:22:48;23.10;47.60
68485;DHT22;55472;50.060;21.960;2022-10-16T12:25:33;23.00;47.60
68485;DHT22;55472;50.060;21.960;2022-10-16T12:28:17;23.10;47.80
68485;DHT22;55472;50.060;21.960;2022-10-16T12:30:59;23.10;47.60
68485;DHT22;55472;50.060;21.960;2022-10-16T12:33:33;23.00;47.60
68485;DHT22;55472;50.060;21.960;2022-10-16T12:36:06;22.90;47.80
68485;DHT22;55472;50.060;21.960;2022-10-16T12:38:38;22.90;47.80
68485;DHT22;55472;50.060;21.960;2022-10-16T12:41:12;22.80;48.70
68485;DHT22;55472;50.060;21.960;2022-10-16T12:43:42;22.80;48.20
68485;DHT22;55472;50.060;21.960;2022-10-16T12:48:36;23.00;48.00
68485;DHT22;55472;50.060;21.960;2022-10-16T12:51:24;22.80;48.10
68485;DHT22;55472;50.060;21.960;2022-10-16T12:56:50;22.90;47.90
68485;DHT22;55472;50.060;21.960;2022-10-16T13:05:30;22.80;48.10
68485;DHT22;55472;50.060;21.960;2022-10-16T13:20:30;22.00;49.10
68485;DHT22;55472;50.060;21.960;2022-10-16T13:23:23;21.80;49.30
68485;DHT22;55472;50.060;21.960;2022-10-16T13:26:28;21.70;49.70
68485;DHT22;55472;50.060;21.960;2022-10-16T13:29:01;21.60;50.60
68485;DHT22;55472;50.060;21.960;2022-10-16T13:31:28;21.70;50.50
68485;DHT22;55472;50.060;21.960;2022-10-16T13:33:57;21.60;49.60
68485;DHT22;55472;50.060;21.960;2022-10-16T13:42:10;21.40;50.20
68485;DHT22;55472;50.060;21.960;2022-10-16T13:44:43;21.50;50.60
68485;DHT22;55472;50.060;21.960;2022-10-16T13:47:17;21.50;50.20
68485;DHT22;55472;50.060;21.960;2022-10-16T13:49:47;21.60;49.90
68485;DHT22;55472;50.060;21.960;2022-10-16T13:52:24;21.60;50.00
68485;DHT22;55472;50.060;21.960;2022-10-16T13:54:50;21.50;50.40
68485;DHT22;55472;50.060;21.960;2022-10-16T13:57:17;21.50;50.20
68485;DHT22;55472;50.060;21.960;2022-10-16T13:59:43;21.50;50.00
68485;DHT22;55472;50.060;21.960;2022-10-16T14:04:46;21.60;49.60
68485;DHT22;55472;50.060;21.960;2022-10-16T14:07:24;21.50;49.80
68485;DHT22;55472;50.060;21.960;2022-10-16T14:09:55;21.50;49.70
68485;DHT22;55472;50.060;21.960;2022-10-16T14:12:23;21.40;50.00
68485;DHT22;55472;50.060;21.960;2022-10-16T14:14:51;21.30;50.50
68485;DHT22;55472;50.060;21.960;2022-10-16T14:17:27;21.30;50.20
68485;DHT22;55472;50.060;21.960;2022-10-16T14:19:57;21.10;50.00
68485;DHT22;55472;50.060;21.960;2022-10-16T14:22:35;21.00;50.70
68485;DHT22;55472;50.060;21.960;2022-10-16T14:28:23;20.90;51.00
68485;DHT22;55472;50.060;21.960;2022-10-16T14:30:59;20.80;51.00
68485;DHT22;55472;50.060;21.960;2022-10-16T14:38:38;20.30;52.00
68485;DHT22;55472;50.060;21.960;2022-10-16T14:41:05;20.20;52.40
68485;DHT22;55472;50.060;21.960;2022-10-16T14:43:36;20.00;52.80
68485;DHT22;55472;50.060;21.960;2022-10-16T14:46:11;19.80;53.50
68485;DHT22;55472;50.060;21.960;2022-10-16T14:48:47;19.70;53.80
68485;DHT22;55472;50.060;21.960;2022-10-16T14:51:16;19.60;54.20
68485;DHT22;55472;50.060;21.960;2022-10-16T14:53:44;19.50;54.70
68485;DHT22;55472;50.060;21.960;2022-10-16T14:56:20;19.40;55.30
68485;DHT22;55472;50.060;21.960;2022-10-16T14:58:48;19.30;55.70
68485;DHT22;55472;50.060;21.960;2022-10-16T15:01:15;19.40;55.80
68485;DHT22;55472;50.060;21.960;2022-10-16T15:03:41;19.30;55.50
68485;DHT22;55472;50.060;21.960;2022-10-16T15:06:11;19.20;55.30
68485;DHT22;55472;50.060;21.960;2022-10-16T15:08:38;19.10;55.80
68485;DHT22;55472;50.060;21.960;2022-10-16T15:11:05;19.00;56.20
68485;DHT22;55472;50.060;21.960;2022-10-16T15:13:38;18.90;56.50
68485;DHT22;55472;50.060;21.960;2022-10-16T15:16:04;18.80;56.50
68485;DHT22;55472;50.060;21.960;2022-10-16T15:18:32;18.80;56.90
68485;DHT22;55472;50.060;21.960;2022-10-16T15:20:58;18.70;57.20
68485;DHT22;55472;50.060;21.960;2022-10-16T15:23:24;18.60;57.20
68485;DHT22;55472;50.060;21.960;2022-10-16T15:25:52;18.60;57.30
68485;DHT22;55472;50.060;21.960;2022-10-16T15:28:21;18.50;57.40
68485;DHT22;55472;50.060;21.960;2022-10-16T15:30:53;18.40;57.70
68485;DHT22;55472;50.060;21.960;2022-10-16T15:33:26;18.30;58.10
68485;DHT22;55472;50.060;21.960;2022-10-16T15:35:54;18.20;57.80
68485;DHT22;55472;50.060;21.960;2022-10-16T15:38:21;18.10;58.20
68485;DHT22;55472;50.060;21.960;2022-10-16T15:40:48;18.00;58.60
68485;DHT22;55472;50.060;21.960;2022-10-16T15:43:16;17.90;58.90
68485;DHT22;55472;50.060;21.960;2022-10-16T15:45:41;17.90;59.50
68485;DHT22;55472;50.060;21.960;2022-10-16T15:48:14;17.80;59.80
68485;DHT22;55472;50.060;21.960;2022-10-16T15:50:40;17.80;60.10
68485;DHT22;55472;50.060;21.960;2022-10-16T15:53:08;17.80;60.30
68485;DHT22;55472;50.060;21.960;2022-10-16T15:55:34;17.60;60.60
68485;DHT22;55472;50.060;21.960;2022-10-16T15:58:03;17.50;60.50
68485;DHT22;55472;50.060;21.960;2022-10-16T16:00:30;17.50;60.70
68485;DHT22;55472;50.060;21.960;2022-10-16T16:02:56;17.50;60.70
68485;DHT22;55472;50.060;21.960;2022-10-16T16:05:22;17.50;60.50
68485;DHT22;55472;50.060;21.960;2022-10-16T16:07:49;17.40;60.60
68485;DHT22;55472;50.060;21.960;2022-10-16T16:10:15;17.40;61.00
68485;DHT22;55472;50.060;21.960;2022-10-16T16:12:42;17.30;60.90
68485;DHT22;55472;50.060;21.960;2022-10-16T16:15:08;17.20;61.10
68485;DHT22;55472;50.060;21.960;2022-10-16T16:17:35;17.20;61.20
68485;DHT22;55472;50.060;21.960;2022-10-16T16:20:02;17.10;61.50
68485;DHT22;55472;50.060;21.960;2022-10-16T16:22:29;17.10;61.40
68485;DHT22;55472;50.060;21.960;2022-10-16T16:24:55;17.10;61.40
68485;DHT22;55472;50.060;21.960;2022-10-16T16:27:21;17.10;61.60
68485;DHT22;55472;50.060;21.960;2022-10-16T16:29:50;17.10;61.50
68485;DHT22;55472;50.060;21.960;2022-10-16T16:32:16;17.10;61.70
68485;DHT22;55472;50.060;21.960;2022-10-16T16:34:48;17.10;61.80
68485;DHT22;55472;50.060;21.960;2022-10-16T16:37:14;17.10;61.70
68485;DHT22;55472;50.060;21.960;2022-10-16T16:39:40;17.10;61.80
68485;DHT22;55472;50.060;21.960;2022-10-16T16:42:07;17.00;61.90
68485;DHT22;55472;50.060;21.960;2022-10-16T16:44:33;17.00;61.80
68485;DHT22;55472;50.060;21.960;2022-10-16T16:47:03;16.90;61.90
68485;DHT22;55472;50.060;21.960;2022-10-16T16:49:29;16.80;61.90
68485;DHT22;55472;50.060;21.960;2022-10-16T16:51:55;16.70;62.30
68485;DHT22;55472;50.060;21.960;2022-10-16T16:54:21;16.60;62.40
68485;DHT22;55472;50.060;21.960;2022-10-16T16:56:47;16.50;62.70
68485;DHT22;55472;50.060;21.960;2022-10-16T16:59:16;16.30;63.30
68485;DHT22;55472;50.060;21.960;2022-10-16T17:01:45;16.30;63.30
68485;DHT22;55472;50.060;21.960;2022-10-16T17:04:11;16.30;63.70
68485;DHT22;55472;50.060;21.960;2022-10-16T17:06:39;16.20;63.90
68485;DHT22;55472;50.060;21.960;2022-10-16T17:09:06;16.20;64.00
68485;DHT22;55472;50.060;21.960;2022-10-16T17:11:33;16.10;64.10
68485;DHT22;55472;50.060;21.960;2022-10-16T17:14:00;16.10;64.40
68485;DHT22;55472;50.060;21.960;2022-10-16T17:16:32;16.00;64.60
68485;DHT22;55472;50.060;21.960;2022-10-16T17:19:12;16.00;64.60
68485;DHT22;55472;50.060;21.960;2022-10-16T17:21:40;15.90;64.60
68485;DHT22;55472;50.060;21.960;2022-10-16T17:24:06;15.90;64.80
68485;DHT22;55472;50.060;21.960;2022-10-16T17:26:33;15.80;64.80
68485;DHT22;55472;50.060;21.960;2022-10-16T17:29:03;15.80;64.60
68485;DHT22;55472;50.060;21.960;2022-10-16T17:31:32;15.80;64.60